Time;durP1;ratioP1;P1;durP2;ratioP2;P2;SDS_P1;SDS_P2;PMS_P1;PMS_P2;Temp;Humidity;BMP_temperature;BMP_pressure;BME280_temperature;BME280_humidity;BME280_pressure;Samples;Min_cycle;Max_cycle;Signal;HPM_P1;HPM_P2
2021/08/13 00:03:10;;;;;;;12.90;8.82;;;20.10;68.80;;;;;;4881769;29;20486;-89
2021/08/13 00:09:00;;;;;;;12.70;9.05;;;20.10;69.10;;;;;;4881195;29;20081;-89
2021/08/13 00:14:49;;;;;;;15.10;9.52;;;20.00;69.40;;;;;;4881167;29;20040;-89
2021/08/13 00:20:38;;;;;;;13.95;8.63;;;20.00;69.90;;;;;;4888671;29;20108;-90
2021/08/13 00:26:28;;;;;;;15.43;9.15;;;19.90;69.80;;;;;;4882863;29;20036;-90
2021/08/13 00:32:19;;;;;;;14.73;9.30;;;19.90;70.10;;;;;;4882238;29;20500;-91
2021/08/13 00:42:02;;;;;;;13.07;8.73;;;19.80;70.60;;;;;;4890748;29;20529;-90
2021/08/13 00:47:55;;;;;;;12.55;8.48;;;19.80;70.70;;;;;;4883062;29;20040;-90
2021/08/13 00:53:43;;;;;;;13.18;8.35;;;19.70;70.70;;;;;;4887679;29;20066;-90
2021/08/13 00:59:33;;;;;;;11.55;7.65;;;19.60;71.10;;;;;;4881802;29;20077;-89
2021/08/13 01:05:21;;;;;;;13.35;8.30;;;19.70;71.80;;;;;;4880955;29;20040;-89
2021/08/13 01:11:32;;;;;;;13.55;8.15;;;19.80;71.90;;;;;;4880630;29;20056;-89
2021/08/13 01:17:22;;;;;;;15.05;8.52;;;19.80;71.70;;;;;;4880905;29;20142;-89
2021/08/13 01:23:26;;;;;;;13.68;9.52;;;19.70;71.80;;;;;;4880686;29;20081;-89
2021/08/13 01:29:39;;;;;;;17.27;8.90;;;19.60;71.70;;;;;;4887308;29;20077;-90
2021/08/13 01:35:32;;;;;;;13.82;8.98;;;19.50;72.00;;;;;;4901158;29;20045;-89
2021/08/13 01:45:31;;;;;;;13.90;8.70;;;19.50;72.50;;;;;;4883965;29;20109;-90
2021/08/13 01:51:19;;;;;;;13.50;8.70;;;19.50;72.70;;;;;;4883274;29;20109;-89
2021/08/13 01:57:09;;;;;;;14.05;8.82;;;19.50;72.60;;;;;;4883974;29;20142;-89
2021/08/13 02:03:00;;;;;;;14.07;9.88;;;19.40;72.60;;;;;;4883982;29;20472;-90
2021/08/13 02:08:50;;;;;;;15.05;9.60;;;19.30;72.80;;;;;;4883391;29;20092;-89
2021/08/13 02:14:39;;;;;;;14.00;9.57;;;19.30;73.10;;;;;;4882924;29;20051;-89
2021/08/13 02:20:37;;;;;;;14.82;9.45;;;19.20;73.20;;;;;;4883540;29;20085;-89
2021/08/13 02:26:25;;;;;;;15.05;9.63;;;19.20;73.40;;;;;;4883231;29;20080;-89
2021/08/13 02:32:16;;;;;;;14.88;10.00;;;19.10;73.60;;;;;;4883015;29;20076;-89
2021/08/13 02:38:14;;;;;;;14.25;9.95;;;19.00;73.60;;;;;;4882945;29;20031;-89
2021/08/13 02:48:07;;;;;;;14.80;10.07;;;19.00;73.80;;;;;;4906372;29;20074;-88
2021/08/13 02:53:58;;;;;;;16.35;9.95;;;18.90;73.90;;;;;;4881900;29;20405;-89
2021/08/13 02:59:49;;;;;;;13.70;9.35;;;18.90;74.10;;;;;;4882617;29;20044;-89
2021/08/13 03:05:43;;;;;;;14.60;9.40;;;18.90;74.40;;;;;;4882830;29;20558;-90
2021/08/13 03:11:34;;;;;;;14.85;10.40;;;18.80;74.50;;;;;;4881825;29;20097;-89
2021/08/13 03:17:23;;;;;;;16.27;12.40;;;18.80;74.60;;;;;;4882344;29;20108;-90
2021/08/13 03:23:12;;;;;;;20.23;13.18;;;18.80;74.80;;;;;;4882862;29;20032;-89
2021/08/13 03:29:07;;;;;;;19.52;14.20;;;18.70;74.80;;;;;;4882423;29;20060;-89
2021/08/13 03:34:59;;;;;;;21.95;15.30;;;18.70;74.80;;;;;;4881254;29;20534;-87
2021/08/13 03:40:48;;;;;;;20.40;14.35;;;18.60;74.90;;;;;;4880958;29;20040;-87
2021/08/13 03:50:38;;;;;;;19.70;14.93;;;18.60;75.10;;;;;;4880812;29;20428;-87
2021/08/13 03:56:28;;;;;;;19.17;13.90;;;18.60;75.50;;;;;;4880747;29;20052;-87
2021/08/13 04:02:32;;;;;;;19.48;13.93;;;18.50;75.40;;;;;;4880530;29;20040;-87
2021/08/13 04:08:32;;;;;;;22.38;12.82;;;18.50;75.50;;;;;;4880677;29;20059;-87
2021/08/13 04:14:21;;;;;;;18.70;13.18;;;18.50;75.70;;;;;;4880465;29;20073;-87
2021/08/13 04:20:20;;;;;;;19.00;13.32;;;18.50;75.80;;;;;;4880848;29;20043;-87
2021/08/13 04:26:19;;;;;;;;;;;;;;;;;;;;;
2021/08/13 04:32:18;;;;;;;20.80;12.75;;;18.70;76.10;;;;;;4880424;29;20079;-87
2021/08/13 04:38:34;;;;;;;17.65;12.90;;;18.80;76.20;;;;;;4880426;29;20071;-87
2021/08/13 04:44:33;;;;;;;17.83;12.02;;;18.90;76.40;;;;;;4880064;29;20032;-87
2021/08/13 04:50:25;;;;;;;16.13;12.18;;;19.00;76.20;;;;;;4880329;29;20071;-88
2021/08/13 04:56:13;;;;;;;18.10;13.10;;;19.10;76.40;;;;;;4880052;29;20060;-88
2021/08/13 05:02:06;;;;;;;17.65;12.32;;;19.30;76.50;;;;;;4879897;29;20032;-88
2021/08/13 05:08:08;;;;;;;17.73;12.20;;;19.50;76.60;;;;;;4880161;29;20036;-88
2021/08/13 05:14:51;;;;;;;;;;;;;;;;;;;;;
2021/08/13 05:28:33;;;;;;;14.60;10.27;;;20.60;76.40;;;;;;4865183;29;20036;-81
2021/08/13 05:42:33;;;;;;;;;;;;;;;;;;;;;
2021/08/13 06:07:04;;;;;;;15.68;8.85;;;21.80;75.40;;;;;;4882994;29;20067;-82
2021/08/13 06:12:53;;;;;;;14.10;9.07;;;21.90;75.50;;;;;;4882340;29;20048;-79
2021/08/13 06:18:42;;;;;;;14.90;9.85;;;21.90;75.00;;;;;;4882730;29;20081;-79
2021/08/13 06:24:31;;;;;;;14.95;9.82;;;21.90;74.90;;;;;;4882746;29;20446;-80
2021/08/13 06:30:21;;;;;;;15.23;9.77;;;21.80;75.30;;;;;;4903645;29;20016;-80
2021/08/13 06:36:11;;;;;;;14.52;9.35;;;22.00;75.50;;;;;;4886455;29;20423;-85
2021/08/13 06:41:59;;;;;;;13.27;9.15;;;22.20;75.10;;;;;;4882735;29;20036;-83
2021/08/13 06:47:49;;;;;;;14.95;10.60;;;22.20;74.70;;;;;;4882220;29;20085;-86
2021/08/13 06:53:38;;;;;;;14.63;10.45;;;22.20;74.40;;;;;;4882057;29;20043;-86
2021/08/13 06:59:27;;;;;;;13.90;9.55;;;22.20;74.60;;;;;;4882297;29;20040;-87
2021/08/13 07:09:03;;;;;;;15.43;9.43;;;22.30;74.30;;;;;;4882987;29;20453;-88
2021/08/13 07:14:52;;;;;;;12.57;8.98;;;22.40;74.80;;;;;;4881563;29;20036;-88
2021/08/13 07:20:41;;;;;;;14.30;9.38;;;22.70;75.10;;;;;;4881568;29;20028;-85
2021/08/13 07:26:29;;;;;;;14.70;9.48;;;23.30;75.20;;;;;;4881461;29;20031;-85
2021/08/13 07:32:19;;;;;;;14.25;9.32;;;23.90;74.60;;;;;;4880985;29;20071;-85
2021/08/13 07:38:07;;;;;;;14.20;9.00;;;24.50;73.70;;;;;;4883492;29;20040;-85
2021/08/13 07:43:56;;;;;;;13.77;9.07;;;25.00;73.00;;;;;;4883631;29;20542;-84
2021/08/13 07:49:44;;;;;;;14.40;9.05;;;25.40;72.20;;;;;;4881258;29;20051;-83
2021/08/13 07:55:33;;;;;;;13.48;8.73;;;25.50;70.70;;;;;;4880834;29;20075;-84
2021/08/13 08:01:21;;;;;;;14.05;8.40;;;25.70;70.80;;;;;;4880853;29;20047;-83
2021/08/13 08:10:48;;;;;;;11.90;7.93;;;25.30;69.30;;;;;;4880477;29;20044;-83
2021/08/13 08:16:36;;;;;;;15.13;8.73;;;25.10;70.00;;;;;;4880342;29;20550;-82
2021/08/13 08:22:26;;;;;;;11.43;7.78;;;25.10;70.20;;;;;;4880461;29;20124;-82
2021/08/13 08:28:14;;;;;;;11.63;7.38;;;25.30;70.30;;;;;;4880402;29;20067;-83
2021/08/13 08:34:03;;;;;;;10.55;7.00;;;25.50;70.00;;;;;;4880133;29;20079;-83
2021/08/13 08:39:51;;;;;;;11.30;6.90;;;25.90;70.50;;;;;;4880099;29;20082;-83
2021/08/13 08:45:40;;;;;;;10.50;6.20;;;26.30;69.10;;;;;;4880222;29;20035;-83
2021/08/13 08:51:30;;;;;;;10.20;6.15;;;26.60;68.40;;;;;;4881297;29;20064;-83
2021/08/13 08:57:23;;;;;;;13.50;6.25;;;26.90;68.30;;;;;;4884042;29;20101;-83
2021/08/13 09:03:12;;;;;;;10.50;6.28;;;27.50;67.90;;;;;;4887010;29;20108;-82
2021/08/13 09:12:52;;;;;;;10.02;6.07;;;28.70;67.40;;;;;;4886437;29;20075;-83
2021/08/13 09:18:43;;;;;;;9.73;5.20;;;29.50;65.70;;;;;;4885307;29;20028;-83
2021/08/13 09:24:38;;;;;;;10.05;6.10;;;30.20;65.50;;;;;;4885089;29;20085;-83
2021/08/13 09:30:27;;;;;;;10.85;6.45;;;31.70;64.30;;;;;;4885419;29;20039;-83
2021/08/13 09:36:17;;;;;;;10.35;6.38;;;32.40;61.70;;;;;;4885357;29;20032;-83
2021/08/13 09:42:09;;;;;;;10.13;6.15;;;32.80;59.60;;;;;;4885296;29;20597;-83
2021/08/13 09:47:57;;;;;;;11.07;6.05;;;32.90;58.50;;;;;;4884866;29;20092;-83
2021/08/13 09:53:58;;;;;;;10.77;6.03;;;32.90;57.20;;;;;;4884346;29;20081;-83
2021/08/13 10:00:02;;;;;;;9.70;5.65;;;32.80;56.60;;;;;;4885286;29;20032;-82
2021/08/13 10:06:05;;;;;;;10.45;6.43;;;33.10;56.90;;;;;;4885633;29;20062;-82
2021/08/13 10:16:00;;;;;;;12.75;5.85;;;33.10;54.60;;;;;;4886364;29;20081;-85
2021/08/13 10:21:51;;;;;;;9.07;5.38;;;33.50;54.70;;;;;;4884501;29;20036;-85
2021/08/13 10:27:42;;;;;;;9.05;4.60;;;34.30;53.90;;;;;;4884166;29;20032;-85
2021/08/13 10:33:33;;;;;;;11.13;4.13;;;35.10;51.50;;;;;;4886665;29;20061;-84
2021/08/13 10:39:26;;;;;;;9.27;4.65;;;35.40;50.20;;;;;;4883254;29;20116;-85
2021/08/13 10:45:22;;;;;;;8.90;4.85;;;36.00;50.10;;;;;;4881798;29;20035;-85
2021/08/13 10:51:13;;;;;;;8.27;4.72;;;36.50;48.40;;;;;;4881559;29;20036;-85
2021/08/13 10:57:03;;;;;;;9.05;4.50;;;36.70;47.30;;;;;;4881951;29;20044;-87
2021/08/13 11:03:20;;;;;;;7.55;3.90;;;37.90;46.90;;;;;;4881831;29;20040;-88
2021/08/13 11:09:13;;;;;;;6.97;3.78;;;38.80;45.60;;;;;;4881674;29;20096;-88
2021/08/13 11:19:09;;;;;;;9.90;4.13;;;38.70;42.10;;;;;;4882774;29;20151;-88
2021/08/13 11:24:57;;;;;;;6.93;3.53;;;39.30;39.70;;;;;;4901915;29;20055;-88
2021/08/13 11:30:49;;;;;;;7.50;3.38;;;38.90;38.30;;;;;;4887467;29;20398;-85
2021/08/13 11:36:53;;;;;;;7.97;4.20;;;38.20;38.00;;;;;;4882694;29;20036;-85
2021/08/13 11:42:55;;;;;;;7.72;3.50;;;38.80;38.30;;;;;;4880708;29;20386;-85
2021/08/13 11:48:43;;;;;;;7.03;3.50;;;39.60;36.70;;;;;;4881033;29;20043;-86
2021/08/13 11:54:41;;;;;;;8.60;3.78;;;39.90;35.60;;;;;;4880836;29;20036;-84
2021/08/13 12:00:37;;;;;;;7.68;4.13;;;40.30;36.50;;;;;;4886827;29;20054;-85
2021/08/13 12:06:26;;;;;;;6.93;3.70;;;41.30;37.10;;;;;;4884930;29;20093;-85
2021/08/13 12:12:15;;;;;;;8.73;4.10;;;43.60;36.10;;;;;;4884388;29;20463;-90
2021/08/13 12:22:10;;;;;;;10.07;4.20;;;42.00;32.90;;;;;;4892538;29;20035;-87
2021/08/13 12:28:00;;;;;;;9.60;4.35;;;40.70;34.20;;;;;;4886741;29;20052;-88
2021/08/13 12:33:57;;;;;;;7.32;3.83;;;42.70;35.90;;;;;;4883970;29;20028;-88
2021/08/13 12:39:48;;;;;;;6.90;3.55;;;45.30;33.20;;;;;;4884804;29;20036;-88
2021/08/13 12:45:37;;;;;;;9.57;4.07;;;44.00;30.80;;;;;;4885076;29;20044;-88
2021/08/13 12:51:28;;;;;;;8.10;4.07;;;42.40;32.00;;;;;;4883709;29;20509;-88
2021/08/13 12:57:21;;;;;;;9.07;4.20;;;43.40;31.30;;;;;;4882719;29;20033;-88
2021/08/13 13:03:18;;;;;;;8.70;4.03;;;42.20;31.30;;;;;;4884224;29;20126;-88
2021/08/13 13:09:10;;;;;;;8.48;4.30;;;44.00;34.60;;;;;;4886478;29;20504;-89
2021/08/13 13:15:06;;;;;;;8.35;4.25;;;45.70;29.60;;;;;;4884894;29;20040;-88
2021/08/13 13:25:21;;;;;;;11.02;4.35;;;46.50;30.30;;;;;;4884383;29;20044;-88
2021/08/13 13:30:52;;;;;;;7.43;4.28;;;46.90;30.10;;;;;;4885728;29;19914;-89
2021/08/13 13:36:41;;;;;;;6.70;4.00;;;48.60;29.90;;;;;;4882497;29;20031;-89
2021/08/13 13:42:34;;;;;;;7.27;4.17;;;49.10;29.60;;;;;;4886492;29;20085;-88
2021/08/13 13:48:23;;;;;;;6.43;4.13;;;50.80;29.20;;;;;;4887330;29;20092;-89
2021/08/13 13:54:12;;;;;;;8.73;4.40;;;53.30;27.80;;;;;;4887197;29;20032;-86
2021/08/13 14:00:04;;;;;;;6.20;4.05;;;54.10;26.70;;;;;;4890009;29;20040;-87
2021/08/13 14:05:56;;;;;;;6.40;3.78;;;54.70;26.00;;;;;;4887450;29;20074;-87
2021/08/13 14:11:45;;;;;;;6.63;3.72;;;50.90;24.90;;;;;;4887552;29;20910;-89
2021/08/13 14:17:38;;;;;;;6.18;3.58;;;49.30;27.20;;;;;;4886353;29;20398;-88
2021/08/13 14:27:27;;;;;;;7.57;3.50;;;50.90;27.50;;;;;;4885940;29;20100;-88
2021/08/13 14:33:18;;;;;;;8.00;4.53;;;50.90;24.70;;;;;;4885186;29;20028;-87
2021/08/13 14:39:09;;;;;;;;;;;49.60;27.60;;;;;;4886335;29;20065;-88
2021/08/13 14:45:01;;;;;;;6.55;3.85;;;53.10;26.50;;;;;;4884892;29;20456;-87
2021/08/13 14:50:50;;;;;;;6.50;4.13;;;54.40;25.00;;;;;;4884918;29;20040;-86
2021/08/13 14:56:39;;;;;;;9.82;4.38;;;54.10;25.10;;;;;;4884374;29;20032;-86
2021/08/13 15:02:27;;;;;;;;;;;54.80;24.50;;;;;;4884811;29;20048;-86
2021/08/13 15:08:21;;;;;;;8.23;3.50;;;53.60;24.20;;;;;;4885364;29;20063;-85
2021/08/13 15:14:11;;;;;;;7.35;3.42;;;51.90;24.10;;;;;;4881505;29;20443;-86
2021/08/13 15:20:05;;;;;;;6.93;3.50;;;51.30;25.10;;;;;;4881332;29;20059;-86
2021/08/13 15:29:54;;;;;;;6.35;3.05;;;50.50;25.40;;;;;;4881452;29;20394;-86
2021/08/13 15:35:42;;;;;;;5.37;3.23;;;50.40;25.80;;;;;;4881270;29;20031;-85
2021/08/13 15:41:30;;;;;;;7.50;3.58;;;49.60;26.50;;;;;;4880996;29;20097;-85
2021/08/13 15:47:22;;;;;;;5.75;3.25;;;48.50;26.30;;;;;;4882036;29;20104;-89
2021/08/13 15:53:12;;;;;;;8.77;4.10;;;46.00;26.50;;;;;;4880734;29;20497;-85
2021/08/13 15:59:05;;;;;;;7.38;3.50;;;46.00;27.10;;;;;;4881103;29;20493;-84
2021/08/13 16:04:53;;;;;;;9.32;4.00;;;44.20;28.80;;;;;;4880735;29;20036;-84
2021/08/13 16:10:45;;;;;;;7.38;3.65;;;46.30;29.00;;;;;;4880758;29;20035;-84
2021/08/13 16:16:33;;;;;;;7.82;3.90;;;46.80;27.70;;;;;;4883046;29;20076;-85
2021/08/13 16:22:22;;;;;;;8.20;3.60;;;46.60;27.90;;;;;;4880677;29;20051;-84
2021/08/13 16:32:14;;;;;;;6.18;3.28;;;47.50;27.90;;;;;;4880640;29;20124;-84
2021/08/13 16:38:07;;;;;;;6.13;3.28;;;47.10;27.20;;;;;;4880221;29;20193;-84
2021/08/13 16:43:59;;;;;;;8.50;3.47;;;46.70;27.00;;;;;;4880482;29;20125;-84
2021/08/13 16:49:47;;;;;;;7.43;3.42;;;45.60;27.20;;;;;;4879943;29;20039;-85
2021/08/13 16:55:37;;;;;;;6.43;2.67;;;45.00;27.30;;;;;;4880147;29;20089;-85
2021/08/13 17:01:26;;;;;;;6.25;3.33;;;44.00;27.60;;;;;;4880337;29;20056;-85
2021/08/13 17:07:14;;;;;;;7.35;3.45;;;43.60;28.10;;;;;;4880024;29;20064;-84
2021/08/13 17:13:06;;;;;;;7.93;3.80;;;43.30;28.60;;;;;;4882028;29;20112;-84
2021/08/13 17:18:54;;;;;;;7.88;3.67;;;43.10;28.30;;;;;;4883487;29;20064;-84
2021/08/13 17:24:44;;;;;;;6.60;3.47;;;42.60;28.20;;;;;;4883704;29;20037;-84
2021/08/13 17:34:34;;;;;;;8.63;3.72;;;41.30;28.50;;;;;;4888621;29;20447;-86
2021/08/13 17:40:24;;;;;;;7.18;3.78;;;39.30;29.20;;;;;;4883625;29;20537;-85
2021/08/13 17:46:13;;;;;;;7.28;3.95;;;37.50;30.20;;;;;;4883353;29;20040;-85
2021/08/13 17:52:01;;;;;;;7.72;3.83;;;36.20;31.70;;;;;;4883349;29;20133;-85
2021/08/13 17:57:51;;;;;;;8.82;3.85;;;35.30;32.60;;;;;;4882925;29;20040;-85
2021/08/13 18:03:39;;;;;;;8.55;4.22;;;34.50;33.40;;;;;;4882916;29;20063;-83
2021/08/13 18:09:28;;;;;;;9.20;4.45;;;33.90;34.30;;;;;;4883071;29;20071;-85
2021/08/13 18:15:17;;;;;;;8.43;3.88;;;33.40;35.00;;;;;;4882719;29;20039;-84
2021/08/13 18:21:06;;;;;;;9.10;4.15;;;32.90;35.60;;;;;;4887081;29;20545;-85
2021/08/13 18:26:56;;;;;;;9.30;4.70;;;32.40;36.20;;;;;;4885427;29;20574;-84
2021/08/13 18:36:40;;;;;;;8.43;4.45;;;31.70;37.20;;;;;;4884839;29;20439;-87
2021/08/13 18:42:28;;;;;;;8.38;4.28;;;31.20;38.10;;;;;;4889184;29;20124;-86
2021/08/13 18:48:20;;;;;;;9.07;4.65;;;30.80;38.90;;;;;;4888291;29;20067;-86
2021/08/13 18:54:10;;;;;;;9.23;5.15;;;30.50;39.50;;;;;;4891582;29;20112;-86
2021/08/13 18:59:59;;;;;;;10.77;5.82;;;30.20;40.20;;;;;;4890581;29;20047;-86
2021/08/13 19:06:21;;;;;;;;;;;;;;;;;;;;;
2021/08/13 19:12:20;;;;;;;10.48;5.10;;;29.20;41.80;;;;;;4885351;29;20040;-84
2021/08/13 19:24:53;;;;;;;12.10;5.32;;;28.60;43.90;;;;;;4883302;29;20407;-87
2021/08/13 19:30:46;;;;;;;11.10;5.53;;;28.30;44.40;;;;;;4884881;29;20450;-84
2021/08/13 19:36:35;;;;;;;10.18;5.97;;;28.00;44.90;;;;;;4867628;29;20041;-85
2021/08/13 19:42:25;;;;;;;10.38;5.18;;;27.70;45.70;;;;;;4867732;29;20078;-85
2021/08/13 19:48:14;;;;;;;10.75;5.80;;;27.40;46.60;;;;;;4867059;29;20068;-89
2021/08/13 19:54:03;;;;;;;10.43;5.50;;;27.10;47.30;;;;;;4868166;29;20387;-90
2021/08/13 19:59:55;;;;;;;9.35;5.57;;;26.90;48.20;;;;;;4868159;29;20033;-86
2021/08/13 20:05:45;;;;;;;11.73;5.70;;;26.60;48.80;;;;;;4868272;29;20041;-90
2021/08/13 20:11:38;;;;;;;12.15;7.18;;;26.40;49.60;;;;;;4866581;29;20039;-89
2021/08/13 20:17:27;;;;;;;11.25;6.22;;;26.30;50.40;;;;;;4867285;29;20060;-88
2021/08/13 20:23:18;;;;;;;11.32;6.25;;;26.10;50.80;;;;;;4872221;29;20052;-84
2021/08/13 20:29:08;;;;;;;12.35;6.07;;;26.00;51.30;;;;;;4870923;29;20098;-86
2021/08/13 20:38:53;;;;;;;10.68;6.43;;;25.70;51.70;;;;;;4886407;29;20079;-87
2021/08/13 20:44:42;;;;;;;10.80;6.07;;;25.50;52.40;;;;;;4889176;29;20146;-88
2021/08/13 20:50:32;;;;;;;11.48;6.60;;;25.40;52.80;;;;;;4886279;29;20028;-86
2021/08/13 20:56:22;;;;;;;11.60;6.30;;;25.20;53.20;;;;;;4886787;29;20090;-88
2021/08/13 21:02:11;;;;;;;11.02;6.55;;;25.10;53.80;;;;;;4890091;29;20193;-88
2021/08/13 21:08:01;;;;;;;14.88;7.13;;;24.90;54.20;;;;;;4892998;29;20056;-87
2021/08/13 21:13:50;;;;;;;12.13;7.22;;;24.70;54.60;;;;;;4881348;29;20112;-86
2021/08/13 21:19:43;;;;;;;12.10;7.30;;;24.50;55.20;;;;;;4880992;29;20537;-86
2021/08/13 21:25:32;;;;;;;11.88;7.57;;;24.30;55.80;;;;;;4881450;29;20378;-87
2021/08/13 21:31:22;;;;;;;12.70;7.13;;;24.20;56.40;;;;;;4890426;29;20084;-86
2021/08/13 21:41:05;;;;;;;11.27;6.90;;;23.80;56.80;;;;;;4880371;29;20153;-87
2021/08/13 21:46:54;;;;;;;12.70;7.50;;;23.60;57.50;;;;;;4895209;29;20039;-87
2021/08/13 21:52:44;;;;;;;13.65;7.65;;;23.50;58.10;;;;;;4883671;29;20044;-87
2021/08/13 21:58:32;;;;;;;13.13;8.05;;;23.30;58.40;;;;;;4881871;29;20501;-87
2021/08/13 22:04:21;;;;;;;13.50;8.27;;;23.20;59.00;;;;;;4885631;29;20037;-87
2021/08/13 22:10:11;;;;;;;14.32;7.32;;;23.00;59.40;;;;;;4884250;29;20039;-88
2021/08/13 22:16:00;;;;;;;13.88;7.40;;;22.90;60.00;;;;;;4883483;29;20100;-88
2021/08/13 22:21:50;;;;;;;12.25;7.13;;;22.80;60.70;;;;;;4884392;29;20048;-89
2021/08/13 22:27:40;;;;;;;11.02;6.68;;;22.80;61.20;;;;;;4883851;29;20071;-89
2021/08/13 22:33:29;;;;;;;11.40;6.88;;;22.90;62.30;;;;;;4882854;29;20037;-87
2021/08/13 22:43:12;;;;;;;11.25;6.95;;;22.90;62.30;;;;;;4882596;29;20074;-88
2021/08/13 22:49:02;;;;;;;10.73;6.25;;;22.90;62.60;;;;;;4882964;29;20044;-88
2021/08/13 22:54:51;;;;;;;12.75;6.82;;;22.90;62.60;;;;;;4882546;29;20068;-88
2021/08/13 23:00:40;;;;;;;11.75;6.78;;;22.90;62.70;;;;;;4882997;29;20092;-88
2021/08/13 23:06:29;;;;;;;11.65;6.63;;;22.80;63.00;;;;;;4882551;29;20048;-88
2021/08/13 23:12:17;;;;;;;14.55;7.88;;;22.70;63.70;;;;;;4882394;29;20096;-88
2021/08/13 23:18:07;;;;;;;11.55;7.57;;;22.70;64.00;;;;;;4882020;29;20084;-88
2021/08/13 23:23:55;;;;;;;12.95;7.32;;;22.60;64.10;;;;;;4881899;29;20068;-88
2021/08/13 23:29:44;;;;;;;12.40;7.45;;;22.50;64.40;;;;;;4882401;29;20028;-88
2021/08/13 23:35:33;;;;;;;12.18;7.38;;;22.40;64.40;;;;;;4882928;29;20055;-88
2021/08/13 23:45:17;;;;;;;11.80;6.82;;;22.30;64.80;;;;;;4881800;29;20049;-87
2021/08/13 23:51:06;;;;;;;12.45;6.85;;;22.10;65.00;;;;;;4898636;29;20062;-87
2021/08/13 23:56:55;;;;;;;13.18;7.65;;;22.10;65.00;;;;;;4881701;29;20040;-88
